createdAt,value
2018-12-06T00:00:44.759Z,1010.24
2018-12-06T00:01:53.690Z,1010.26
2018-12-06T00:03:02.910Z,1010.26
2018-12-06T00:04:12.341Z,1010.26
2018-12-06T00:05:21.277Z,1010.18
2018-12-06T00:06:30.969Z,1010.23
2018-12-06T00:07:40.152Z,1010.22
2018-12-06T00:08:49.585Z,1010.2
2018-12-06T00:09:59.000Z,1010.2
2018-12-06T00:11:08.431Z,1010.2
2018-12-06T00:12:17.612Z,1010.22
2018-12-06T00:13:26.532Z,1010.16
2018-12-06T00:14:35.722Z,1010.21
2018-12-06T00:15:45.158Z,1010.22
2018-12-06T00:16:54.356Z,1010.22
2018-12-06T00:18:03.528Z,1010.26
2018-12-06T00:19:12.952Z,1010.21
2018-12-06T00:20:22.382Z,1010.24
2018-12-06T00:21:31.540Z,1010.23
2018-12-06T00:22:40.470Z,1010.22
2018-12-06T00:23:49.762Z,1010.24
2018-12-06T00:24:58.694Z,1010.22
2018-12-06T00:26:08.121Z,1010.25
2018-12-06T00:27:17.549Z,1010.23
2018-12-06T00:28:26.979Z,1010.24
2018-12-06T00:29:35.915Z,1010.24
2018-12-06T00:30:45.594Z,1010.27
2018-12-06T00:31:55.298Z,1010.28
2018-12-06T00:33:04.740Z,1010.28
2018-12-06T00:34:14.164Z,1010.3
2018-12-06T00:35:23.076Z,1010.27
2018-12-06T00:36:32.501Z,1010.28
2018-12-06T00:37:42.436Z,1010.23
2018-12-06T00:38:51.606Z,1010.29
2018-12-06T00:40:00.808Z,1010.27
2018-12-06T00:41:09.752Z,1010.29
2018-12-06T00:42:19.195Z,1010.28
2018-12-06T00:43:28.637Z,1010.26
2018-12-06T00:44:38.334Z,1010.24
2018-12-06T00:45:47.512Z,1010.26
2018-12-06T00:46:56.942Z,1010.34
2018-12-06T00:48:06.368Z,1010.34
2018-12-06T00:49:15.796Z,1010.36
2018-12-06T00:50:24.985Z,1010.28
2018-12-06T00:51:34.415Z,1010.3
2018-12-06T00:52:43.350Z,1010.25
2018-12-06T00:53:52.366Z,1010.29
2018-12-06T00:55:02.058Z,1010.31
2018-12-06T00:56:11.510Z,1010.33
2018-12-06T00:57:20.945Z,1010.35
2018-12-06T00:58:30.140Z,1010.31
2018-12-06T00:59:39.334Z,1010.35
2018-12-06T01:00:48.784Z,1010.29
2018-12-06T01:01:57.977Z,1010.28
2018-12-06T01:03:07.155Z,1010.28
2018-12-06T01:04:16.320Z,1010.26
2018-12-06T01:05:25.771Z,1010.21
2018-12-06T01:06:34.947Z,1010.28
2018-12-06T01:07:44.394Z,1010.27
2018-12-06T01:08:53.820Z,1010.28
2018-12-06T01:10:03.514Z,1010.25
2018-12-06T01:11:12.943Z,1010.25
2018-12-06T01:12:22.179Z,1010.22
2018-12-06T01:13:31.363Z,1010.21
2018-12-06T01:14:40.290Z,1010.21
2018-12-06T01:15:49.209Z,1010.2
2018-12-06T01:16:58.461Z,1010.15
2018-12-06T01:18:07.625Z,1010.15
2018-12-06T01:19:16.801Z,1010.11
2018-12-06T01:20:26.482Z,1010.12
2018-12-06T01:21:35.683Z,1010.11
2018-12-06T01:22:45.129Z,1010.1
2018-12-06T01:23:54.541Z,1010.11
2018-12-06T01:25:03.739Z,1010.13
2018-12-06T01:26:12.668Z,1010.11
2018-12-06T01:27:22.351Z,1010.13
2018-12-06T01:28:31.545Z,1010.11
2018-12-06T01:29:40.760Z,1010.11
2018-12-06T01:30:49.933Z,1010.09
2018-12-06T01:31:58.855Z,1010.1
2018-12-06T01:33:08.062Z,1010.09
2018-12-06T01:34:17.022Z,1010.11
2018-12-06T01:35:25.963Z,1010.11
2018-12-06T01:36:35.262Z,1010.06
2018-12-06T01:37:44.461Z,1010.06
2018-12-06T01:38:53.653Z,1010.05
2018-12-06T01:40:02.835Z,1010.07
2018-12-06T01:41:12.288Z,1010.07
2018-12-06T01:42:22.417Z,1010.02
2018-12-06T01:43:32.114Z,1010.06
2018-12-06T01:44:41.563Z,1010.06
2018-12-06T01:45:50.987Z,1010
2018-12-06T01:46:59.681Z,1010.03
2018-12-06T01:48:08.383Z,1010.05
2018-12-06T01:49:17.821Z,1010.05
2018-12-06T01:50:27.519Z,1010.1
2018-12-06T01:51:36.959Z,1010.07
2018-12-06T01:52:46.484Z,1010.06
2018-12-06T01:53:55.681Z,1010.01
2018-12-06T01:55:05.123Z,1009.98
2018-12-06T01:56:14.300Z,1010.02
2018-12-06T01:57:24.214Z,1010.01
2018-12-06T01:58:33.903Z,1010.04
2018-12-06T01:59:43.336Z,1010.05
2018-12-06T02:00:52.777Z,1010
2018-12-06T02:02:02.191Z,1009.99
2018-12-06T02:03:11.139Z,1009.99
2018-12-06T02:04:20.576Z,1009.97
2018-12-06T02:05:30.011Z,1009.94
2018-12-06T02:06:39.687Z,1009.9
2018-12-06T02:07:48.868Z,1009.87
2018-12-06T02:08:58.039Z,1009.9
2018-12-06T02:10:07.209Z,1009.88
2018-12-06T02:11:16.391Z,1009.87
2018-12-06T02:12:25.306Z,1009.86
2018-12-06T02:13:34.745Z,1009.82
2018-12-06T02:14:43.917Z,1009.84
2018-12-06T02:15:53.103Z,1009.87
2018-12-06T02:17:02.779Z,1009.87
2018-12-06T02:18:12.478Z,1009.88
2018-12-06T02:19:21.407Z,1009.86
2018-12-06T02:20:30.961Z,1009.86
2018-12-06T02:21:40.150Z,1009.87
2018-12-06T02:22:49.580Z,1009.89
2018-12-06T02:23:59.021Z,1009.89
2018-12-06T02:25:08.695Z,1009.89
2018-12-06T02:26:17.875Z,1009.88
2018-12-06T02:27:27.313Z,1009.9
2018-12-06T02:28:36.729Z,1009.89
2018-12-06T02:29:46.682Z,1009.85
2018-12-06T02:30:56.137Z,1009.84
2018-12-06T02:32:05.832Z,1009.83
2018-12-06T02:33:15.287Z,1009.84
2018-12-06T02:34:24.787Z,1009.83
2018-12-06T02:35:33.974Z,1009.79
2018-12-06T02:36:43.689Z,1009.79
2018-12-06T02:37:52.614Z,1009.81
2018-12-06T02:39:02.614Z,1009.76
2018-12-06T02:40:12.318Z,1009.81
2018-12-06T02:41:21.777Z,1009.8
2018-12-06T02:42:31.461Z,1009.76
2018-12-06T02:43:41.418Z,1009.7
2018-12-06T02:44:51.366Z,1009.69
2018-12-06T02:46:01.069Z,1009.68
2018-12-06T02:47:10.585Z,1009.7
2018-12-06T02:48:20.025Z,1009.63
2018-12-06T02:49:29.736Z,1009.64
2018-12-06T02:50:39.053Z,1009.64
2018-12-06T02:51:48.501Z,1009.65
2018-12-06T02:52:57.915Z,1009.64
2018-12-06T02:54:07.365Z,1009.6
2018-12-06T02:55:16.566Z,1009.63
2018-12-06T02:56:26.256Z,1009.6
2018-12-06T02:57:35.767Z,1009.65
2018-12-06T02:58:45.713Z,1009.56
2018-12-06T02:59:54.912Z,1009.57
2018-12-06T03:01:04.407Z,1009.57
2018-12-06T03:02:13.600Z,1009.6
2018-12-06T03:03:23.523Z,1009.61
2018-12-06T03:04:32.982Z,1009.58
2018-12-06T03:05:42.691Z,1009.59
2018-12-06T03:06:52.116Z,1009.6
2018-12-06T03:08:01.630Z,1009.59
2018-12-06T03:09:11.057Z,1009.61
2018-12-06T03:10:20.264Z,1009.59
2018-12-06T03:11:29.722Z,1009.61
2018-12-06T03:12:38.929Z,1009.62
2018-12-06T03:13:48.623Z,1009.59
2018-12-06T03:14:57.805Z,1009.61
2018-12-06T03:16:06.508Z,1009.59
2018-12-06T03:17:16.183Z,1009.57
2018-12-06T03:18:25.123Z,1009.57
2018-12-06T03:19:34.565Z,1009.58
2018-12-06T03:20:44.013Z,1009.61
2018-12-06T03:21:53.468Z,1009.55
2018-12-06T03:23:02.902Z,1009.58
2018-12-06T03:24:12.594Z,1009.59
2018-12-06T03:25:22.518Z,1009.56
2018-12-06T03:26:31.738Z,1009.55
2018-12-06T03:27:40.923Z,1009.54
2018-12-06T03:28:50.621Z,1009.54
2018-12-06T03:30:00.060Z,1009.51
2018-12-06T03:31:10.071Z,1009.54
2018-12-06T03:32:19.561Z,1009.58
2018-12-06T03:33:29.576Z,1009.57
2018-12-06T03:34:39.070Z,1009.58
2018-12-06T03:35:48.288Z,1009.58
2018-12-06T03:36:57.963Z,1009.55
2018-12-06T03:38:07.652Z,1009.59
2018-12-06T03:39:16.835Z,1009.62
2018-12-06T03:40:26.258Z,1009.59
2018-12-06T03:41:35.707Z,1009.64
2018-12-06T03:42:44.890Z,1009.63
2018-12-06T03:43:53.823Z,1009.67
2018-12-06T03:45:03.017Z,1009.65
2018-12-06T03:46:12.699Z,1009.66
2018-12-06T03:47:22.380Z,1009.7
2018-12-06T03:48:31.606Z,1009.7
2018-12-06T03:49:41.315Z,1009.7
2018-12-06T03:50:49.994Z,1009.68
2018-12-06T03:51:59.789Z,1009.69
2018-12-06T03:53:09.343Z,1009.66
2018-12-06T03:54:18.779Z,1009.7
2018-12-06T03:55:28.476Z,1009.73
2018-12-06T03:56:37.922Z,1009.72
2018-12-06T03:57:47.366Z,1009.77
2018-12-06T03:58:57.053Z,1009.8
2018-12-06T04:00:06.727Z,1009.8
2018-12-06T04:01:15.993Z,1009.78
2018-12-06T04:02:25.410Z,1009.74
2018-12-06T04:03:35.329Z,1009.72
2018-12-06T04:04:45.057Z,1009.73
2018-12-06T04:05:54.252Z,1009.77
2018-12-06T04:07:03.915Z,1009.75
2018-12-06T04:08:13.375Z,1009.76
2018-12-06T04:09:22.814Z,1009.73
2018-12-06T04:10:32.749Z,1009.76
2018-12-06T04:11:41.937Z,1009.77
2018-12-06T04:12:51.644Z,1009.75
2018-12-06T04:14:01.111Z,1009.73
2018-12-06T04:15:10.581Z,1009.72
2018-12-06T04:16:20.042Z,1009.71
2018-12-06T04:17:29.746Z,1009.74
2018-12-06T04:18:38.694Z,1009.74
2018-12-06T04:19:48.175Z,1009.76
2018-12-06T04:20:57.390Z,1009.76
2018-12-06T04:22:06.841Z,1009.71
2018-12-06T04:23:15.525Z,1009.72
2018-12-06T04:24:24.738Z,1009.73
2018-12-06T04:25:34.181Z,1009.75
2018-12-06T04:26:43.896Z,1009.71
2018-12-06T04:27:53.362Z,1009.71
2018-12-06T04:29:02.300Z,1009.69
2018-12-06T04:30:11.244Z,1009.72
2018-12-06T04:31:20.450Z,1009.77
2018-12-06T04:32:29.895Z,1009.77
2018-12-06T04:33:39.605Z,1009.78
2018-12-06T04:34:49.055Z,1009.8
2018-12-06T04:35:58.487Z,1009.84
2018-12-06T04:37:07.982Z,1009.89
2018-12-06T04:38:17.721Z,1009.92
2018-12-06T04:39:27.505Z,1009.97
2018-12-06T04:40:37.214Z,1009.98
2018-12-06T04:41:47.030Z,1009.96
2018-12-06T04:42:56.727Z,1009.93
2018-12-06T04:44:06.424Z,1009.93
2018-12-06T04:45:16.100Z,1009.95
2018-12-06T04:46:25.539Z,1009.96
2018-12-06T04:47:35.205Z,1009.94
2018-12-06T04:48:44.907Z,1009.94
2018-12-06T04:49:54.359Z,1009.94
2018-12-06T04:51:03.808Z,1009.93
2018-12-06T04:52:13.229Z,1009.94
2018-12-06T04:53:22.991Z,1009.95
2018-12-06T04:54:32.704Z,1009.93
2018-12-06T04:55:41.912Z,1009.92
2018-12-06T04:56:51.376Z,1009.95
2018-12-06T04:58:01.074Z,1009.99
2018-12-06T04:59:10.762Z,1009.97
2018-12-06T05:00:19.960Z,1010.03
2018-12-06T05:01:29.665Z,1010.03
2018-12-06T05:02:39.575Z,1010.09
2018-12-06T05:03:49.035Z,1010.12
2018-12-06T05:04:58.208Z,1010.13
2018-12-06T05:06:07.380Z,1010.12
2018-12-06T05:07:17.059Z,1010.09
2018-12-06T05:08:26.489Z,1010.13
2018-12-06T05:09:35.698Z,1010.12
2018-12-06T05:10:45.164Z,1010.12
2018-12-06T05:11:54.651Z,1010.09
2018-12-06T05:13:03.834Z,1010.11
2018-12-06T05:14:13.268Z,1010.07
2018-12-06T05:15:23.851Z,1010.14
2018-12-06T05:16:33.811Z,1010.18
2018-12-06T05:17:43.246Z,1010.17
2018-12-06T05:18:52.188Z,1010.22
2018-12-06T05:20:01.615Z,1010.24
2018-12-06T05:21:10.556Z,1010.22
2018-12-06T05:22:19.743Z,1010.23
2018-12-06T05:23:29.162Z,1010.25
2018-12-06T05:24:38.606Z,1010.25
2018-12-06T05:25:48.053Z,1010.25
2018-12-06T05:26:57.729Z,1010.28
2018-12-06T05:28:06.658Z,1010.28
2018-12-06T05:29:15.373Z,1010.29
2018-12-06T05:30:25.031Z,1010.23
2018-12-06T05:31:34.954Z,1010.27
2018-12-06T05:32:43.876Z,1010.24
2018-12-06T05:33:53.051Z,1010.25
2018-12-06T05:35:02.733Z,1010.22
2018-12-06T05:36:12.157Z,1010.23
2018-12-06T05:37:21.586Z,1010.29
2018-12-06T05:38:30.809Z,1010.33
2018-12-06T05:39:40.240Z,1010.27
2018-12-06T05:40:49.953Z,1010.31
2018-12-06T05:41:59.657Z,1010.25
2018-12-06T05:43:08.834Z,1010.27
2018-12-06T05:44:18.281Z,1010.3
2018-12-06T05:45:27.559Z,1010.34
2018-12-06T05:46:36.483Z,1010.35
2018-12-06T05:47:45.398Z,1010.35
2018-12-06T05:48:54.586Z,1010.33
2018-12-06T05:50:04.086Z,1010.32
2018-12-06T05:51:14.335Z,1010.37
2018-12-06T05:52:23.315Z,1010.39
2018-12-06T05:53:33.005Z,1010.43
2018-12-06T05:54:42.187Z,1010.46
2018-12-06T05:55:51.891Z,1010.45
2018-12-06T05:57:01.333Z,1010.43
2018-12-06T05:58:11.035Z,1010.42
2018-12-06T05:59:20.485Z,1010.47
2018-12-06T06:00:30.165Z,1010.4
2018-12-06T06:01:39.603Z,1010.42
2018-12-06T06:02:49.326Z,1010.53
2018-12-06T06:03:58.757Z,1010.57
2018-12-06T06:05:08.190Z,1010.6
2018-12-06T06:06:18.064Z,1010.57
2018-12-06T06:07:27.510Z,1010.65
2018-12-06T06:08:36.960Z,1010.65
2018-12-06T06:09:46.387Z,1010.65
2018-12-06T06:10:55.342Z,1010.67
2018-12-06T06:12:04.814Z,1010.67
2018-12-06T06:13:14.751Z,1010.66
2018-12-06T06:14:24.192Z,1010.65
2018-12-06T06:15:33.648Z,1010.69
2018-12-06T06:16:43.121Z,1010.64
2018-12-06T06:17:52.545Z,1010.67
2018-12-06T06:19:01.748Z,1010.7
2018-12-06T06:20:11.174Z,1010.67
2018-12-06T06:21:20.375Z,1010.67
2018-12-06T06:22:29.802Z,1010.67
2018-12-06T06:23:39.002Z,1010.69
2018-12-06T06:24:47.963Z,1010.7
2018-12-06T06:25:57.903Z,1010.76
2018-12-06T06:27:07.646Z,1010.74
2018-12-06T06:28:17.076Z,1010.71
2018-12-06T06:29:26.281Z,1010.71
2018-12-06T06:30:35.768Z,1010.68
2018-12-06T06:31:44.971Z,1010.63
2018-12-06T06:32:53.923Z,1010.61
2018-12-06T06:34:03.609Z,1010.6
2018-12-06T06:35:12.788Z,1010.62
2018-12-06T06:36:22.476Z,1010.65
2018-12-06T06:37:31.896Z,1010.69
2018-12-06T06:38:40.839Z,1010.67
2018-12-06T06:39:50.013Z,1010.75
2018-12-06T06:40:58.958Z,1010.8
2018-12-06T06:42:07.886Z,1010.83
2018-12-06T06:43:17.091Z,1010.89
2018-12-06T06:44:26.530Z,1010.94
2018-12-06T06:45:35.701Z,1010.93
2018-12-06T06:46:45.126Z,1010.94
2018-12-06T06:47:55.093Z,1010.94
2018-12-06T06:49:04.275Z,1010.94
2018-12-06T06:50:21.310Z,1010.95
2018-12-06T06:51:30.494Z,1011.01
2018-12-06T06:52:39.690Z,1011.06
2018-12-06T06:53:50.934Z,1011.05
2018-12-06T06:54:59.880Z,1011.17
2018-12-06T06:56:09.313Z,1011.24
2018-12-06T06:57:18.523Z,1011.26
2018-12-06T06:58:27.704Z,1011.25
2018-12-06T06:59:37.397Z,1011.27
2018-12-06T07:00:46.588Z,1011.28
2018-12-06T07:01:56.560Z,1011.33
2018-12-06T07:03:05.996Z,1011.34
2018-12-06T07:04:15.190Z,1011.37
2018-12-06T07:05:24.128Z,1011.39
2018-12-06T07:06:33.539Z,1011.37
2018-12-06T07:07:42.964Z,1011.42
2018-12-06T07:08:51.888Z,1011.39
2018-12-06T07:10:01.089Z,1011.43
2018-12-06T07:11:10.535Z,1011.42
2018-12-06T07:12:20.066Z,1011.44
2018-12-06T07:13:29.008Z,1011.44
2018-12-06T07:14:38.426Z,1011.51
2018-12-06T07:15:47.855Z,1011.54
2018-12-06T07:16:57.345Z,1011.59
2018-12-06T07:18:06.776Z,1011.6
2018-12-06T07:19:15.961Z,1011.61
2018-12-06T07:20:25.935Z,1011.61
2018-12-06T07:21:35.134Z,1011.59
2018-12-06T07:22:44.798Z,1011.54
2018-12-06T07:23:54.243Z,1011.49
2018-12-06T07:25:03.440Z,1011.49
2018-12-06T07:26:12.401Z,1011.51
2018-12-06T07:27:21.847Z,1011.58
2018-12-06T07:28:31.032Z,1011.65
2018-12-06T07:29:40.969Z,1011.71
2018-12-06T07:30:51.211Z,1011.72
2018-12-06T07:32:00.644Z,1011.69
2018-12-06T07:33:09.842Z,1011.66
2018-12-06T07:34:19.044Z,1011.61
2018-12-06T07:35:28.226Z,1011.61
2018-12-06T07:36:39.561Z,1011.63
2018-12-06T07:37:48.488Z,1011.72
2018-12-06T07:38:58.409Z,1011.72
2018-12-06T07:40:07.959Z,1011.77
2018-12-06T07:41:17.389Z,1011.75
2018-12-06T07:42:26.813Z,1011.78
2018-12-06T07:43:36.004Z,1011.69
2018-12-06T07:44:45.147Z,1011.71
2018-12-06T07:45:55.066Z,1011.72
2018-12-06T07:47:04.537Z,1011.73
2018-12-06T07:48:13.728Z,1011.76
2018-12-06T07:49:23.180Z,1011.71
2018-12-06T07:50:32.385Z,1011.71
2018-12-06T07:51:42.077Z,1011.73
2018-12-06T07:52:51.773Z,1011.77
2018-12-06T07:54:00.705Z,1011.86
2018-12-06T07:55:10.134Z,1011.91
2018-12-06T07:56:18.824Z,1011.87
2018-12-06T07:57:28.918Z,1011.89
2018-12-06T07:58:38.414Z,1011.9
2018-12-06T07:59:48.119Z,1011.87
2018-12-06T08:00:57.092Z,1011.92
2018-12-06T08:02:06.304Z,1011.9
2018-12-06T08:03:16.015Z,1011.87
2018-12-06T08:04:25.284Z,1011.87
2018-12-06T08:05:34.530Z,1011.91
2018-12-06T08:06:43.700Z,1011.87
2018-12-06T08:07:52.913Z,1011.92
2018-12-06T08:09:02.155Z,1011.94
2018-12-06T08:10:11.603Z,1011.98
2018-12-06T08:11:20.543Z,1012.04
2018-12-06T08:12:30.298Z,1012.03
2018-12-06T08:13:38.989Z,1011.99
2018-12-06T08:14:48.459Z,1011.96
2018-12-06T08:15:57.662Z,1011.96
2018-12-06T08:17:06.607Z,1011.93
2018-12-06T08:18:15.819Z,1011.99
2018-12-06T08:19:25.032Z,1012.01
2018-12-06T08:20:34.507Z,1012.02
2018-12-06T08:21:43.707Z,1012
2018-12-06T08:22:52.905Z,1011.97
2018-12-06T08:24:02.600Z,1011.89
2018-12-06T08:25:12.085Z,1011.94
2018-12-06T08:26:23.538Z,1011.97
2018-12-06T08:27:32.487Z,1011.96
2018-12-06T08:28:41.917Z,1012
2018-12-06T08:29:51.386Z,1012.01
2018-12-06T08:31:01.329Z,1012.03
2018-12-06T08:32:10.580Z,1012
2018-12-06T08:33:20.275Z,1012
2018-12-06T08:34:29.735Z,1012.04
2018-12-06T08:35:38.931Z,1012
2018-12-06T08:36:47.611Z,1011.93
2018-12-06T08:37:56.547Z,1011.97
2018-12-06T08:39:05.263Z,1011.96
2018-12-06T08:40:14.455Z,1011.96
2018-12-06T08:41:23.657Z,1012.04
2018-12-06T08:42:33.100Z,1012.05
2018-12-06T08:43:50.298Z,1012.01
2018-12-06T08:44:59.735Z,1011.99
2018-12-06T08:46:09.161Z,1011.95
2018-12-06T08:47:18.357Z,1011.94
2018-12-06T08:48:27.329Z,1011.92
2018-12-06T08:49:36.284Z,1011.99
2018-12-06T08:50:46.152Z,1012.05
2018-12-06T08:51:55.338Z,1012.11
2018-12-06T08:53:04.779Z,1012.13
2018-12-06T08:54:14.233Z,1012.13
2018-12-06T08:55:23.672Z,1012.11
2018-12-06T08:56:33.153Z,1012.08
2018-12-06T08:57:42.622Z,1012.15
2018-12-06T08:58:51.817Z,1012.18
2018-12-06T09:00:01.518Z,1012.2
2018-12-06T09:01:10.709Z,1012.24
2018-12-06T09:02:20.143Z,1012.21
2018-12-06T09:03:29.332Z,1012.17
2018-12-06T09:04:38.761Z,1012.14
2018-12-06T09:05:48.441Z,1012.14
2018-12-06T09:06:57.625Z,1012.2
2018-12-06T09:08:07.306Z,1012.24
2018-12-06T09:09:16.995Z,1012.26
2018-12-06T09:10:26.441Z,1012.25
2018-12-06T09:11:36.122Z,1012.24
2018-12-06T09:12:45.561Z,1012.29
2018-12-06T09:13:54.749Z,1012.26
2018-12-06T09:15:04.200Z,1012.29
2018-12-06T09:16:13.909Z,1012.29
2018-12-06T09:17:23.796Z,1012.25
2018-12-06T09:18:32.976Z,1012.25
2018-12-06T09:19:42.442Z,1012.21
2018-12-06T09:20:51.892Z,1012.19
2018-12-06T09:22:01.346Z,1012.12
2018-12-06T09:23:10.788Z,1012.15
2018-12-06T09:24:19.990Z,1012.13
2018-12-06T09:25:28.924Z,1012.1
2018-12-06T09:26:38.149Z,1012.17
2018-12-06T09:27:47.362Z,1012.11
2018-12-06T09:28:56.123Z,1012.09
2018-12-06T09:30:05.064Z,1012.12
2018-12-06T09:31:14.493Z,1012.13
2018-12-06T09:32:23.723Z,1012.1
2018-12-06T09:33:32.740Z,1012.09
2018-12-06T09:34:42.605Z,1012.02
2018-12-06T09:35:51.807Z,1011.96
2018-12-06T09:37:00.743Z,1011.93
2018-12-06T09:38:10.202Z,1011.9
2018-12-06T09:39:19.185Z,1011.9
2018-12-06T09:40:28.386Z,1011.87
2018-12-06T09:41:38.328Z,1011.91
2018-12-06T09:42:47.290Z,1011.92
2018-12-06T09:43:57.275Z,1011.96
2018-12-06T09:45:06.475Z,1011.98
2018-12-06T09:46:15.907Z,1012.06
2018-12-06T09:47:25.362Z,1012.14
2018-12-06T09:48:34.312Z,1012.18
2018-12-06T09:49:43.757Z,1012.22
2018-12-06T09:50:53.472Z,1012.24
2018-12-06T09:52:03.250Z,1012.27
2018-12-06T09:53:12.184Z,1012.26
2018-12-06T09:54:21.366Z,1012.3
2018-12-06T09:55:30.803Z,1012.31
2018-12-06T09:56:39.742Z,1012.36
2018-12-06T09:57:49.426Z,1012.38
2018-12-06T09:58:58.614Z,1012.44
2018-12-06T10:00:07.793Z,1012.48
2018-12-06T10:01:16.554Z,1012.45
2018-12-06T10:02:25.994Z,1012.46
2018-12-06T10:03:34.939Z,1012.52
2018-12-06T10:04:43.883Z,1012.56
2018-12-06T10:05:52.914Z,1012.54
2018-12-06T10:07:02.373Z,1012.55
2018-12-06T10:08:12.075Z,1012.54
2018-12-06T10:09:21.270Z,1012.52
2018-12-06T10:10:30.946Z,1012.56
2018-12-06T10:11:40.145Z,1012.55
2018-12-06T10:12:49.088Z,1012.61
2018-12-06T10:13:58.766Z,1012.58
2018-12-06T10:15:08.195Z,1012.6
2018-12-06T10:16:17.899Z,1012.63
2018-12-06T10:17:27.402Z,1012.63
2018-12-06T10:18:36.862Z,1012.62
2018-12-06T10:19:46.548Z,1012.66
2018-12-06T10:20:56.227Z,1012.63
2018-12-06T10:22:05.944Z,1012.61
2018-12-06T10:23:15.149Z,1012.59
2018-12-06T10:24:24.844Z,1012.56
2018-12-06T10:25:34.538Z,1012.59
2018-12-06T10:26:44.246Z,1012.56
2018-12-06T10:27:53.186Z,1012.56
2018-12-06T10:29:02.887Z,1012.57
2018-12-06T10:30:12.120Z,1012.53
2018-12-06T10:31:21.553Z,1012.56
2018-12-06T10:32:30.499Z,1012.61
2018-12-06T10:33:39.936Z,1012.64
2018-12-06T10:34:53.330Z,1012.66
2018-12-06T10:36:03.236Z,1012.69
2018-12-06T10:37:12.682Z,1012.65
2018-12-06T10:38:21.871Z,1012.65
2018-12-06T10:39:31.057Z,1012.64
2018-12-06T10:40:40.247Z,1012.67
2018-12-06T10:41:49.423Z,1012.71
2018-12-06T10:42:59.133Z,1012.68
2018-12-06T10:44:08.806Z,1012.65
2018-12-06T10:45:18.227Z,1012.68
2018-12-06T10:46:27.686Z,1012.65
2018-12-06T10:47:37.411Z,1012.67
2018-12-06T10:48:46.608Z,1012.71
2018-12-06T10:49:56.286Z,1012.7
2018-12-06T10:51:07.565Z,1012.74
2018-12-06T10:52:17.109Z,1012.71
2018-12-06T10:53:26.554Z,1012.66
2018-12-06T10:54:35.821Z,1012.73
2018-12-06T10:55:45.271Z,1012.7
2018-12-06T10:56:54.455Z,1012.67
2018-12-06T10:58:04.135Z,1012.71
2018-12-06T10:59:13.555Z,1012.7
2018-12-06T11:00:22.248Z,1012.74
2018-12-06T11:01:31.704Z,1012.69
2018-12-06T11:02:41.410Z,1012.74
2018-12-06T11:03:50.856Z,1012.68
2018-12-06T11:05:00.048Z,1012.7
2018-12-06T11:06:09.238Z,1012.72
2018-12-06T11:07:18.934Z,1012.65
2018-12-06T11:08:28.147Z,1012.65
2018-12-06T11:09:37.838Z,1012.66
2018-12-06T11:10:47.273Z,1012.62
2018-12-06T11:11:56.976Z,1012.63
2018-12-06T11:13:06.170Z,1012.59
2018-12-06T11:14:15.606Z,1012.57
2018-12-06T11:15:25.306Z,1012.54
2018-12-06T11:16:35.012Z,1012.51
2018-12-06T11:17:44.958Z,1012.52
2018-12-06T11:18:54.651Z,1012.5
2018-12-06T11:20:03.833Z,1012.53
2018-12-06T11:21:13.269Z,1012.51
2018-12-06T11:22:22.971Z,1012.46
2018-12-06T11:23:32.412Z,1012.51
2018-12-06T11:24:42.118Z,1012.54
2018-12-06T11:25:51.581Z,1012.56
2018-12-06T11:27:01.013Z,1012.54
2018-12-06T11:28:10.198Z,1012.52
2018-12-06T11:29:19.401Z,1012.52
2018-12-06T11:30:29.114Z,1012.56
2018-12-06T11:31:38.309Z,1012.56
2018-12-06T11:32:47.765Z,1012.59
2018-12-06T11:33:57.185Z,1012.57
2018-12-06T11:35:06.360Z,1012.56
2018-12-06T11:36:16.033Z,1012.6
2018-12-06T11:37:25.718Z,1012.59
2018-12-06T11:38:35.152Z,1012.61
2018-12-06T11:39:44.833Z,1012.58
2018-12-06T11:40:54.335Z,1012.59
2018-12-06T11:42:03.774Z,1012.63
2018-12-06T11:43:13.234Z,1012.62
2018-12-06T11:44:22.935Z,1012.63
2018-12-06T11:45:32.379Z,1012.65
2018-12-06T11:46:41.561Z,1012.66
2018-12-06T11:47:50.993Z,1012.63
2018-12-06T11:49:01.027Z,1012.72
2018-12-06T11:50:10.461Z,1012.69
2018-12-06T11:51:19.911Z,1012.71
2018-12-06T11:52:29.115Z,1012.74
2018-12-06T11:53:38.838Z,1012.76
2018-12-06T11:54:48.021Z,1012.76
2018-12-06T11:55:56.964Z,1012.75
2018-12-06T11:57:06.407Z,1012.71
2018-12-06T11:58:16.090Z,1012.71
2018-12-06T11:59:25.287Z,1012.7
2018-12-06T12:00:34.984Z,1012.71
2018-12-06T12:01:43.925Z,1012.73
2018-12-06T12:02:52.665Z,1012.72
2018-12-06T12:04:01.853Z,1012.74
2018-12-06T12:05:11.548Z,1012.76
2018-12-06T12:06:20.745Z,1012.72
2018-12-06T12:07:29.967Z,1012.75
2018-12-06T12:08:39.423Z,1012.75
2018-12-06T12:09:48.127Z,1012.79
2018-12-06T12:10:58.083Z,1012.79
2018-12-06T12:12:07.515Z,1012.73
2018-12-06T12:13:17.189Z,1012.77
2018-12-06T12:14:27.139Z,1012.74
2018-12-06T12:15:36.077Z,1012.8
2018-12-06T12:16:45.275Z,1012.8
2018-12-06T12:17:54.741Z,1012.78
2018-12-06T12:19:03.927Z,1012.79
2018-12-06T12:20:13.366Z,1012.75
2018-12-06T12:21:22.304Z,1012.74
2018-12-06T12:22:31.239Z,1012.69
2018-12-06T12:23:40.944Z,1012.71
2018-12-06T12:24:50.167Z,1012.74
2018-12-06T12:25:59.585Z,1012.76
2018-12-06T12:27:08.779Z,1012.76
2018-12-06T12:28:18.477Z,1012.76
2018-12-06T12:29:27.648Z,1012.74
2018-12-06T12:30:37.343Z,1012.73
2018-12-06T12:31:46.800Z,1012.77
2018-12-06T12:32:56.503Z,1012.8
2018-12-06T12:34:05.949Z,1012.76
2018-12-06T12:35:15.398Z,1012.83
2018-12-06T12:36:26.243Z,1012.86
2018-12-06T12:37:35.430Z,1012.84
2018-12-06T12:38:44.361Z,1012.8
2018-12-06T12:39:53.330Z,1012.77
2018-12-06T12:41:03.033Z,1012.73
2018-12-06T12:42:12.208Z,1012.73
2018-12-06T12:43:21.678Z,1012.71
2018-12-06T12:44:30.851Z,1012.76
2018-12-06T12:45:40.043Z,1012.79
2018-12-06T12:46:49.483Z,1012.8
2018-12-06T12:47:58.428Z,1012.79
2018-12-06T12:49:07.879Z,1012.85
2018-12-06T12:50:16.580Z,1012.83
2018-12-06T12:51:26.042Z,1012.86
2018-12-06T12:52:35.223Z,1012.84
2018-12-06T12:53:44.978Z,1012.84
2018-12-06T12:54:54.666Z,1012.84
2018-12-06T12:56:03.860Z,1012.84
2018-12-06T12:57:13.545Z,1012.87
2018-12-06T12:58:23.010Z,1012.82
2018-12-06T12:59:32.210Z,1012.85
2018-12-06T13:00:41.212Z,1012.79
2018-12-06T13:01:50.175Z,1012.83
2018-12-06T13:02:59.639Z,1012.77
2018-12-06T13:04:09.339Z,1012.83
2018-12-06T13:05:18.801Z,1012.78
2018-12-06T13:06:28.255Z,1012.78
2018-12-06T13:07:37.441Z,1012.78
2018-12-06T13:08:46.684Z,1012.69
2018-12-06T13:09:56.384Z,1012.71
2018-12-06T13:11:05.568Z,1012.68
2018-12-06T13:12:15.545Z,1012.71
2018-12-06T13:13:24.742Z,1012.68
2018-12-06T13:14:34.454Z,1012.7
2018-12-06T13:15:44.153Z,1012.69
2018-12-06T13:16:53.113Z,1012.72
2018-12-06T13:18:02.313Z,1012.72
2018-12-06T13:19:11.529Z,1012.64
2018-12-06T13:20:21.215Z,1012.67
2018-12-06T13:21:30.681Z,1012.58
2018-12-06T13:22:40.377Z,1012.57
2018-12-06T13:23:49.588Z,1012.59
2018-12-06T13:24:58.282Z,1012.59
2018-12-06T13:26:07.717Z,1012.54
2018-12-06T13:27:17.402Z,1012.6
2018-12-06T13:28:26.869Z,1012.58
2018-12-06T13:29:35.816Z,1012.54
2018-12-06T13:30:45.762Z,1012.54
2018-12-06T13:31:55.463Z,1012.51
2018-12-06T13:33:05.157Z,1012.54
2018-12-06T13:34:15.133Z,1012.54
2018-12-06T13:35:25.114Z,1012.53
2018-12-06T13:36:34.549Z,1012.55
2018-12-06T13:37:44.529Z,1012.52
2018-12-06T13:38:53.743Z,1012.54
2018-12-06T13:40:04.019Z,1012.46
2018-12-06T13:41:13.438Z,1012.54
2018-12-06T13:42:23.640Z,1012.55
2018-12-06T13:43:33.493Z,1012.48
2018-12-06T13:44:42.934Z,1012.52
2018-12-06T13:45:51.668Z,1012.48
2018-12-06T13:47:01.103Z,1012.42
2018-12-06T13:48:10.305Z,1012.46
2018-12-06T13:49:19.999Z,1012.45
2018-12-06T13:50:29.590Z,1012.54
2018-12-06T13:51:39.086Z,1012.55
2018-12-06T13:52:48.644Z,1012.52
2018-12-06T13:53:57.827Z,1012.51
2018-12-06T13:55:07.287Z,1012.54
2018-12-06T13:56:16.956Z,1012.54
2018-12-06T13:57:26.446Z,1012.58
2018-12-06T13:58:35.182Z,1012.6
2018-12-06T13:59:44.363Z,1012.6
2018-12-06T14:00:53.619Z,1012.59
2018-12-06T14:02:05.536Z,1012.6
2018-12-06T14:03:15.225Z,1012.61